createdAt,value
2018-03-15T00:02:00.589Z,17.88
2018-03-15T00:04:37.607Z,19.06
2018-03-15T00:07:05.875Z,19.58
2018-03-15T00:09:34.136Z,19.52
2018-03-15T00:12:02.423Z,18.60
2018-03-15T00:14:30.707Z,18.36
2018-03-15T00:16:58.991Z,18.92
2018-03-15T00:19:27.280Z,18.16
2018-03-15T00:21:55.575Z,20.44
2018-03-15T00:24:23.876Z,19.10
2018-03-15T00:26:52.135Z,17.12
2018-03-15T00:29:20.414Z,20.94
2018-03-15T00:31:48.677Z,18.24
2018-03-15T00:34:16.962Z,19.68
2018-03-15T00:36:45.256Z,19.36
2018-03-15T00:39:14.698Z,18.50
2018-03-15T00:41:43.875Z,18.98
2018-03-15T00:44:12.139Z,18.58
2018-03-15T00:46:40.407Z,17.66
2018-03-15T00:49:08.699Z,18.08
2018-03-15T00:51:36.955Z,17.58
2018-03-15T00:54:05.225Z,17.72
2018-03-15T00:56:33.531Z,16.48
2018-03-15T00:59:01.791Z,16.96
2018-03-15T01:01:30.087Z,18.34
2018-03-15T01:03:58.348Z,19.66
2018-03-15T01:06:26.638Z,17.22
2018-03-15T01:08:54.890Z,15.98
2018-03-15T01:11:23.148Z,18.30
2018-03-15T01:13:51.449Z,17.40
2018-03-15T01:16:19.707Z,18.64
2018-03-15T01:18:48.000Z,16.60
2018-03-15T01:21:16.288Z,19.20
2018-03-15T01:23:45.332Z,18.02
2018-03-15T01:26:15.071Z,17.98
2018-03-15T01:28:44.290Z,19.38
2018-03-15T01:31:12.585Z,16.42
2018-03-15T01:33:40.853Z,17.36
2018-03-15T01:36:09.156Z,19.42
2018-03-15T01:38:37.456Z,16.78
2018-03-15T01:41:05.712Z,16.26
2018-03-15T01:43:33.976Z,17.66
2018-03-15T01:46:02.267Z,15.98
2018-03-15T01:48:30.560Z,17.18
2018-03-15T01:50:58.875Z,16.66
2018-03-15T01:53:27.140Z,16.14
2018-03-15T01:55:55.443Z,17.32
2018-03-15T01:58:23.699Z,16.34
2018-03-15T02:00:51.960Z,16.90
2018-03-15T02:03:20.254Z,17.24
2018-03-15T02:05:48.538Z,16.06
2018-03-15T02:08:16.798Z,16.02
2018-03-15T02:10:46.302Z,17.70
2018-03-15T02:13:15.389Z,17.62
2018-03-15T02:15:44.339Z,16.14
2018-03-15T02:18:14.585Z,17.24
2018-03-15T02:20:43.662Z,14.48
2018-03-15T02:23:11.962Z,16.40
2018-03-15T02:25:40.220Z,17.02
2018-03-15T02:28:08.471Z,16.96
2018-03-15T02:30:36.749Z,16.16
2018-03-15T02:33:05.019Z,16.82
2018-03-15T02:35:33.306Z,16.72
2018-03-15T02:38:01.554Z,15.44
2018-03-15T02:40:29.868Z,16.92
2018-03-15T02:42:58.124Z,16.54
2018-03-15T02:45:26.432Z,15.70
2018-03-15T02:47:54.691Z,15.86
2018-03-15T02:50:22.957Z,16.14
2018-03-15T02:52:51.262Z,15.56
2018-03-15T02:55:19.530Z,15.96
2018-03-15T02:57:47.790Z,16.46
2018-03-15T03:00:16.079Z,15.74
2018-03-15T03:02:45.616Z,15.48
2018-03-15T03:05:14.800Z,15.14
2018-03-15T03:07:43.776Z,15.08
2018-03-15T03:10:12.080Z,16.94
2018-03-15T03:12:40.339Z,16.38
2018-03-15T03:15:08.596Z,14.22
2018-03-15T03:17:36.879Z,15.88
2018-03-15T03:20:05.158Z,14.04
2018-03-15T03:22:33.442Z,14.76
2018-03-15T03:25:01.702Z,14.28
2018-03-15T03:27:29.987Z,15.02
2018-03-15T03:29:58.239Z,15.52
2018-03-15T03:32:26.535Z,15.00
2018-03-15T03:34:54.794Z,15.34
2018-03-15T03:37:23.079Z,13.32
2018-03-15T03:39:51.326Z,13.18
2018-03-15T03:42:19.627Z,13.48
2018-03-15T03:44:47.896Z,13.64
2018-03-15T03:47:15.446Z,13.34
2018-03-15T03:49:44.786Z,13.30
2018-03-15T03:52:13.756Z,13.56
2018-03-15T03:54:42.031Z,13.66
2018-03-15T03:57:10.278Z,12.16
2018-03-15T03:59:38.566Z,12.54
2018-03-15T04:02:06.864Z,13.42
2018-03-15T04:04:35.133Z,11.44
2018-03-15T04:07:02.633Z,12.72
2018-03-15T04:09:30.929Z,15.28
2018-03-15T04:11:59.187Z,13.50
2018-03-15T04:14:27.469Z,14.48
2018-03-15T04:16:55.755Z,14.52
2018-03-15T04:19:24.054Z,14.00
2018-03-15T04:21:52.312Z,15.28
2018-03-15T04:24:20.567Z,14.66
2018-03-15T04:26:48.859Z,14.32
2018-03-15T04:29:17.110Z,14.20
2018-03-15T04:31:45.410Z,14.70
2018-03-15T04:34:15.054Z,14.64
2018-03-15T04:36:43.343Z,16.02
2018-03-15T04:39:11.622Z,15.74
2018-03-15T04:41:39.917Z,13.96
2018-03-15T04:44:08.174Z,15.78
2018-03-15T04:46:35.670Z,15.20
2018-03-15T04:49:03.957Z,14.74
2018-03-15T04:51:32.218Z,13.56
2018-03-15T04:53:59.740Z,15.08
2018-03-15T04:56:28.001Z,14.12
2018-03-15T04:58:56.278Z,14.62
2018-03-15T05:01:24.570Z,16.14
2018-03-15T05:03:52.850Z,12.86
2018-03-15T05:06:21.106Z,15.12
2018-03-15T05:08:49.386Z,14.84
2018-03-15T05:11:17.649Z,14.92
2018-03-15T05:13:45.192Z,12.98
2018-03-15T05:16:14.468Z,13.80
2018-03-15T05:18:42.763Z,15.14
2018-03-15T05:21:11.047Z,15.18
2018-03-15T05:23:39.342Z,14.58
2018-03-15T05:26:06.865Z,14.20
2018-03-15T05:28:35.167Z,14.38
2018-03-15T05:31:03.455Z,16.36
2018-03-15T05:33:31.751Z,13.40
2018-03-15T05:36:00.027Z,14.38
2018-03-15T05:38:28.286Z,14.16
2018-03-15T05:40:56.584Z,14.38
2018-03-15T05:43:24.852Z,13.22
2018-03-15T05:45:53.139Z,14.20
2018-03-15T05:48:21.390Z,14.64
2018-03-15T05:50:49.692Z,16.38
2018-03-15T05:53:17.986Z,13.56
2018-03-15T05:55:46.254Z,14.86
2018-03-15T05:58:15.598Z,13.88
2018-03-15T06:00:44.888Z,17.14
2018-03-15T06:03:13.162Z,14.32
2018-03-15T06:05:41.459Z,13.74
2018-03-15T06:08:09.720Z,17.26
2018-03-15T06:10:37.971Z,16.92
2018-03-15T06:13:06.255Z,17.12
2018-03-15T06:15:34.502Z,17.42
2018-03-15T06:18:02.782Z,17.56
2018-03-15T06:20:31.046Z,16.10
2018-03-15T06:22:59.350Z,17.60
2018-03-15T06:25:27.638Z,17.58
2018-03-15T06:27:55.910Z,16.44
2018-03-15T06:30:24.175Z,17.02
2018-03-15T06:32:52.470Z,16.42
2018-03-15T06:35:20.720Z,18.24
2018-03-15T06:37:49.006Z,15.50
2018-03-15T06:40:17.279Z,19.26
2018-03-15T06:42:45.584Z,17.46
2018-03-15T06:45:14.794Z,17.10
2018-03-15T06:47:43.916Z,17.02
2018-03-15T06:50:12.210Z,17.64
2018-03-15T06:52:40.474Z,16.80
2018-03-15T06:55:08.772Z,19.58
2018-03-15T06:57:37.053Z,17.68
2018-03-15T07:00:05.349Z,16.94
2018-03-15T07:02:33.618Z,16.82
2018-03-15T07:05:01.906Z,17.26
2018-03-15T07:07:29.430Z,15.90
2018-03-15T07:09:57.733Z,16.50
2018-03-15T07:12:26.032Z,16.64
2018-03-15T07:14:54.322Z,16.14
2018-03-15T07:17:22.581Z,17.94
2018-03-15T07:19:50.863Z,18.66
2018-03-15T07:22:19.115Z,21.32
2018-03-15T07:24:47.412Z,23.46
2018-03-15T07:27:15.662Z,25.90
2018-03-15T07:29:44.806Z,24.24
2018-03-15T07:32:13.968Z,22.00
2018-03-15T07:34:42.264Z,22.80
2018-03-15T07:37:10.551Z,21.72
2018-03-15T07:39:38.806Z,21.38
2018-03-15T07:42:07.094Z,18.52
2018-03-15T07:44:35.401Z,17.90
2018-03-15T07:47:02.895Z,17.18
2018-03-15T07:49:31.183Z,17.82
2018-03-15T07:51:59.438Z,17.22
2018-03-15T07:54:27.737Z,18.44
2018-03-15T07:56:55.986Z,17.54
2018-03-15T07:59:24.239Z,18.26
2018-03-15T08:01:52.516Z,17.70
2018-03-15T08:04:20.775Z,16.08
2018-03-15T08:06:49.083Z,18.24
2018-03-15T08:09:17.352Z,17.24
2018-03-15T08:11:45.606Z,16.22
2018-03-15T08:14:14.990Z,15.34
2018-03-15T08:16:43.284Z,14.46
2018-03-15T08:19:11.560Z,17.02
2018-03-15T08:21:39.843Z,15.86
2018-03-15T08:24:08.102Z,14.70
2018-03-15T08:26:35.629Z,16.78
2018-03-15T08:29:04.634Z,15.52
2018-03-15T08:31:32.936Z,14.94
2018-03-15T08:34:01.185Z,13.38
2018-03-15T08:36:29.438Z,16.44
2018-03-15T08:38:57.735Z,17.82
2018-03-15T08:41:25.988Z,16.80
2018-03-15T08:43:54.266Z,16.36
2018-03-15T08:46:22.518Z,14.98
2018-03-15T08:48:50.810Z,13.84
2018-03-15T08:51:19.087Z,14.54
2018-03-15T08:53:47.380Z,15.54
2018-03-15T08:56:15.635Z,15.92
2018-03-15T08:58:44.951Z,15.64
2018-03-15T09:01:13.211Z,16.70
2018-03-15T09:03:41.491Z,15.16
2018-03-15T09:06:09.777Z,15.56
2018-03-15T09:08:38.040Z,16.82
2018-03-15T09:11:05.554Z,14.30
2018-03-15T09:13:33.812Z,15.84
2018-03-15T09:16:02.096Z,14.70
2018-03-15T09:18:30.355Z,14.04
2018-03-15T09:20:58.636Z,13.34
2018-03-15T09:23:26.927Z,13.06
2018-03-15T09:25:55.203Z,15.08
2018-03-15T09:28:23.494Z,15.68
2018-03-15T09:30:50.986Z,15.20
2018-03-15T09:33:19.247Z,14.24
2018-03-15T09:35:47.558Z,14.68
2018-03-15T09:38:15.830Z,15.04
2018-03-15T09:40:44.145Z,13.96
2018-03-15T09:43:12.419Z,14.30
2018-03-15T09:45:40.707Z,15.86
2018-03-15T09:48:08.998Z,13.84
2018-03-15T09:50:37.300Z,13.50
2018-03-15T09:53:05.582Z,13.10
2018-03-15T09:55:33.900Z,13.08
2018-03-15T09:58:02.213Z,13.30
2018-03-15T10:00:30.475Z,13.00
2018-03-15T10:02:58.745Z,12.76
2018-03-15T10:05:27.039Z,12.12
2018-03-15T10:07:55.336Z,12.62
2018-03-15T10:10:23.653Z,13.14
2018-03-15T10:12:51.935Z,13.90
2018-03-15T10:15:20.252Z,13.08
2018-03-15T10:17:48.536Z,11.82
2018-03-15T10:20:19.157Z,13.30
2018-03-15T10:22:47.445Z,13.98
2018-03-15T10:25:26.395Z,12.84
2018-03-15T10:27:44.035Z,14.26
2018-03-15T10:30:12.308Z,13.26
2018-03-15T10:32:40.608Z,10.28
2018-03-15T10:35:14.514Z,11.82
2018-03-15T10:37:42.050Z,9.74
2018-03-15T10:40:10.316Z,9.62
2018-03-15T10:42:38.619Z,10.20
2018-03-15T10:45:06.883Z,9.04
2018-03-15T10:47:38.420Z,7.80
2018-03-15T10:50:06.699Z,8.56
2018-03-15T10:52:34.987Z,7.08
2018-03-15T10:55:03.255Z,6.60
2018-03-15T10:57:31.554Z,7.36
2018-03-15T10:59:59.878Z,7.80
2018-03-15T11:02:47.834Z,6.72
2018-03-15T11:05:21.035Z,7.70
2018-03-15T11:07:55.021Z,7.16
2018-03-15T11:10:23.318Z,7.36
2018-03-15T11:12:51.608Z,7.00
2018-03-15T11:15:19.870Z,6.70
2018-03-15T11:17:48.142Z,7.46
2018-03-15T11:20:16.448Z,7.20
2018-03-15T11:22:45.769Z,7.48
2018-03-15T11:25:14.832Z,8.42
2018-03-15T11:27:43.891Z,8.06
2018-03-15T11:30:12.178Z,7.40
2018-03-15T11:32:40.439Z,7.18
2018-03-15T11:35:08.727Z,6.42
2018-03-15T11:37:37.021Z,7.10
2018-03-15T11:40:05.286Z,6.28
2018-03-15T11:42:33.587Z,7.02
2018-03-15T11:45:01.854Z,6.32
2018-03-15T11:47:30.115Z,7.20
2018-03-15T11:49:58.415Z,6.86
2018-03-15T11:52:26.719Z,6.78
2018-03-15T11:54:55.032Z,6.96
2018-03-15T11:57:23.294Z,6.98
2018-03-15T11:59:51.576Z,6.00
2018-03-15T12:02:19.870Z,5.94
2018-03-15T12:04:48.167Z,6.08
2018-03-15T12:07:16.470Z,7.04
2018-03-15T12:09:46.047Z,5.92
2018-03-15T12:12:15.123Z,6.98
2018-03-15T12:14:42.636Z,7.92
2018-03-15T12:17:11.000Z,6.32
2018-03-15T12:19:39.222Z,6.14
2018-03-15T12:22:07.518Z,5.58
2018-03-15T12:24:35.775Z,5.62
2018-03-15T12:27:04.063Z,6.48
2018-03-15T12:29:32.364Z,5.74
2018-03-15T12:32:00.615Z,5.28
2018-03-15T12:34:28.890Z,6.48
2018-03-15T12:36:57.141Z,6.00
2018-03-15T12:39:25.423Z,6.40
2018-03-15T12:41:52.912Z,6.18
2018-03-15T12:44:21.166Z,5.58
2018-03-15T12:46:49.461Z,6.26
2018-03-15T12:49:17.719Z,4.98
2018-03-15T12:51:45.230Z,5.06
2018-03-15T12:54:14.510Z,5.26
2018-03-15T12:56:45.250Z,5.82
2018-03-15T12:59:14.515Z,4.68
2018-03-15T13:01:42.821Z,6.08
2018-03-15T13:04:11.075Z,6.10
2018-03-15T13:06:39.330Z,5.14
2018-03-15T13:09:07.616Z,5.20
2018-03-15T13:11:35.895Z,6.20
2018-03-15T13:14:04.185Z,5.40
2018-03-15T13:16:32.495Z,5.20
2018-03-15T13:19:00.746Z,4.92
2018-03-15T13:21:29.002Z,5.20
2018-03-15T13:23:56.511Z,5.58
2018-03-15T13:26:24.777Z,5.10
2018-03-15T13:28:53.065Z,4.30
2018-03-15T13:31:21.329Z,5.96
2018-03-15T13:33:49.596Z,5.50
2018-03-15T13:36:17.870Z,5.52
2018-03-15T13:38:46.117Z,4.72
2018-03-15T13:41:15.546Z,4.80
2018-03-15T13:43:44.650Z,5.40
2018-03-15T13:46:13.669Z,6.10
2018-03-15T13:48:41.923Z,4.72
2018-03-15T13:51:10.171Z,5.38
2018-03-15T13:53:38.443Z,4.80
2018-03-15T13:56:06.734Z,4.90
2018-03-15T13:58:34.986Z,4.20
2018-03-15T14:01:03.230Z,6.12
2018-03-15T14:03:30.765Z,5.52
2018-03-15T14:05:59.086Z,5.30
2018-03-15T14:08:27.312Z,5.04
2018-03-15T14:10:55.603Z,5.96
2018-03-15T14:13:23.850Z,5.22
2018-03-15T14:15:52.121Z,4.78
2018-03-15T14:18:20.366Z,5.98
2018-03-15T14:20:48.647Z,4.78
2018-03-15T14:23:16.934Z,4.80
2018-03-15T14:25:45.198Z,4.82
2018-03-15T14:28:14.019Z,5.02
2018-03-15T14:30:42.262Z,4.50
2018-03-15T14:33:10.539Z,4.62
2018-03-15T14:35:38.026Z,3.70
2018-03-15T14:38:06.315Z,4.68
2018-03-15T14:40:34.608Z,4.90
2018-03-15T14:43:02.856Z,4.68
2018-03-15T14:45:31.138Z,4.32
2018-03-15T14:47:59.410Z,4.62
2018-03-15T14:50:27.667Z,5.90
2018-03-15T14:52:55.967Z,4.82
2018-03-15T14:55:23.455Z,5.14
2018-03-15T14:57:51.712Z,5.60
2018-03-15T15:00:19.996Z,5.62
2018-03-15T15:02:48.292Z,6.20
2018-03-15T15:05:16.571Z,6.00
2018-03-15T15:07:45.928Z,5.76
2018-03-15T15:10:14.217Z,6.34
2018-03-15T15:12:42.473Z,6.04
2018-03-15T15:15:19.052Z,7.14
2018-03-15T15:17:47.351Z,6.58
2018-03-15T15:20:16.638Z,6.30
2018-03-15T15:22:44.896Z,5.68
2018-03-15T15:25:14.236Z,4.88
2018-03-15T15:27:42.446Z,6.14
2018-03-15T15:30:11.716Z,6.32
2018-03-15T15:32:39.963Z,5.44
2018-03-15T15:35:08.241Z,5.42
2018-03-15T15:37:36.529Z,7.00
2018-03-15T15:40:04.775Z,5.34
2018-03-15T15:42:33.065Z,5.18
2018-03-15T15:45:01.320Z,4.86
2018-03-15T15:47:29.591Z,5.82
2018-03-15T15:49:57.866Z,5.54
2018-03-15T15:52:26.110Z,5.76
2018-03-15T15:54:55.391Z,5.76
2018-03-15T15:57:23.638Z,5.68
2018-03-15T15:59:51.924Z,5.36
2018-03-15T16:02:20.171Z,6.14
2018-03-15T16:04:48.418Z,5.22
2018-03-15T16:07:16.708Z,5.76
2018-03-15T16:09:44.998Z,5.24
2018-03-15T16:12:13.284Z,5.36
2018-03-15T16:14:41.545Z,5.38
2018-03-15T16:17:09.826Z,5.20
2018-03-15T16:19:38.107Z,4.86
2018-03-15T16:22:06.382Z,4.30
2018-03-15T16:24:34.633Z,5.80
2018-03-15T16:27:02.919Z,5.70
2018-03-15T16:29:31.162Z,5.00
2018-03-15T16:31:59.436Z,5.46
2018-03-15T16:34:27.696Z,6.06
2018-03-15T16:36:56.731Z,5.42
2018-03-15T16:39:24.959Z,5.54
2018-03-15T16:41:52.467Z,4.90
2018-03-15T16:44:19.957Z,5.20
2018-03-15T16:46:48.235Z,5.46
2018-03-15T16:49:16.482Z,5.24
2018-03-15T16:51:44.776Z,5.08
2018-03-15T16:54:13.037Z,4.72
2018-03-15T16:56:41.291Z,5.42
2018-03-15T16:59:09.576Z,4.86
2018-03-15T17:01:37.823Z,5.00
2018-03-15T17:04:06.103Z,4.42
2018-03-15T17:06:34.378Z,4.60
2018-03-15T17:09:02.656Z,5.18
2018-03-15T17:11:30.906Z,4.92
2018-03-15T17:13:58.407Z,4.94
2018-03-15T17:16:26.682Z,6.40
2018-03-15T17:18:54.962Z,5.02
2018-03-15T17:21:23.244Z,5.38
2018-03-15T17:23:51.502Z,5.00
2018-03-15T17:26:19.778Z,4.68
2018-03-15T17:28:48.037Z,5.30
2018-03-15T17:31:16.319Z,4.48
2018-03-15T17:33:44.574Z,5.20
2018-03-15T17:36:12.819Z,6.22
2018-03-15T17:38:41.098Z,5.00
2018-03-15T17:41:08.580Z,5.46
2018-03-15T17:43:36.858Z,5.74
2018-03-15T17:46:07.109Z,5.58
2018-03-15T17:48:35.390Z,6.10
2018-03-15T17:51:04.626Z,6.14
2018-03-15T17:53:32.926Z,7.08
2018-03-15T17:56:04.520Z,5.58
2018-03-15T17:58:32.803Z,6.10
2018-03-15T18:01:04.487Z,5.88
2018-03-15T18:03:32.776Z,5.70
2018-03-15T18:06:11.311Z,5.86
2018-03-15T18:08:39.609Z,5.70
2018-03-15T18:11:07.850Z,6.36
2018-03-15T18:13:36.095Z,5.48
2018-03-15T18:16:06.315Z,6.68
2018-03-15T18:18:34.589Z,6.20
2018-03-15T18:21:02.898Z,5.74
2018-03-15T18:23:31.145Z,5.72
2018-03-15T18:25:59.429Z,5.72
2018-03-15T18:28:27.720Z,5.36
2018-03-15T18:30:56.635Z,6.10
2018-03-15T18:33:24.896Z,5.58
2018-03-15T18:35:53.175Z,5.38
2018-03-15T18:38:21.450Z,5.64
2018-03-15T18:40:49.710Z,5.86
2018-03-15T18:43:17.999Z,5.38
2018-03-15T18:45:46.279Z,6.34
2018-03-15T18:48:14.558Z,5.38
2018-03-15T18:50:42.833Z,6.94
2018-03-15T18:53:11.110Z,5.88
2018-03-15T18:55:38.597Z,6.30
2018-03-15T18:58:06.886Z,5.16
2018-03-15T19:00:35.228Z,6.28
2018-03-15T19:03:03.480Z,6.44
2018-03-15T19:05:35.411Z,6.56
2018-03-15T19:08:03.665Z,5.28
2018-03-15T19:10:31.963Z,7.34
2018-03-15T19:13:00.235Z,8.40
2018-03-15T19:15:28.583Z,7.76
2018-03-15T19:17:56.910Z,7.12
2018-03-15T19:20:26.399Z,6.32
2018-03-15T19:22:55.591Z,6.58
2018-03-15T19:25:27.748Z,6.72
2018-03-15T19:27:56.518Z,6.72
2018-03-15T19:30:25.370Z,7.28
2018-03-15T19:32:53.671Z,7.56
2018-03-15T19:35:22.013Z,7.02
2018-03-15T19:37:50.290Z,7.08
2018-03-15T19:40:18.585Z,6.98
2018-03-15T19:42:46.884Z,7.74
2018-03-15T19:45:14.362Z,7.58
2018-03-15T19:47:41.888Z,7.28
2018-03-15T19:50:10.146Z,7.08
2018-03-15T19:52:38.426Z,7.30
2018-03-15T19:55:06.699Z,8.00
2018-03-15T19:57:34.982Z,8.76
2018-03-15T20:00:03.253Z,8.70
2018-03-15T20:02:31.538Z,7.94
2018-03-15T20:04:59.802Z,8.36
2018-03-15T20:07:28.104Z,8.46
2018-03-15T20:09:56.385Z,7.84
2018-03-15T20:12:25.501Z,8.98
2018-03-15T20:14:55.040Z,8.50
2018-03-15T20:17:23.326Z,8.40
2018-03-15T20:19:52.568Z,8.56
2018-03-15T20:22:26.520Z,8.90
2018-03-15T20:24:55.397Z,8.76
2018-03-15T20:27:29.294Z,9.46
2018-03-15T20:30:00.906Z,8.84
2018-03-15T20:32:34.756Z,8.66
2018-03-15T20:35:03.014Z,10.42
2018-03-15T20:37:31.274Z,10.44
2018-03-15T20:40:07.318Z,10.16
2018-03-15T20:42:35.584Z,11.30
2018-03-15T20:45:29.340Z,12.20
2018-03-15T20:48:03.259Z,12.24
2018-03-15T20:50:31.553Z,10.64
2018-03-15T20:52:59.807Z,10.52
2018-03-15T20:55:31.462Z,11.82
2018-03-15T20:57:59.714Z,12.04
2018-03-15T21:00:27.962Z,10.74
2018-03-15T21:02:56.245Z,9.42
2018-03-15T21:05:25.290Z,9.48
2018-03-15T21:07:53.552Z,10.00
2018-03-15T21:10:21.830Z,10.12
2018-03-15T21:12:50.088Z,9.48
2018-03-15T21:15:24.707Z,10.20
2018-03-15T21:17:52.954Z,9.44
2018-03-15T21:20:23.203Z,11.12
2018-03-15T21:22:51.454Z,10.52
2018-03-15T21:25:19.734Z,9.12
2018-03-15T21:27:47.982Z,9.60
2018-03-15T21:30:22.130Z,10.86
2018-03-15T21:32:50.374Z,11.18
2018-03-15T21:35:19.589Z,10.74
2018-03-15T21:37:47.850Z,11.62
2018-03-15T21:40:16.107Z,10.02
2018-03-15T21:42:45.393Z,10.88
2018-03-15T21:45:13.644Z,9.82
2018-03-15T21:47:41.933Z,11.04
2018-03-15T21:50:10.184Z,11.48
2018-03-15T21:52:38.466Z,10.46
2018-03-15T21:55:06.718Z,10.76
2018-03-15T21:57:35.022Z,10.38
2018-03-15T22:00:03.279Z,10.56
2018-03-15T22:02:31.562Z,10.58
2018-03-15T22:05:00.091Z,11.58
2018-03-15T22:07:31.942Z,12.50
2018-03-15T22:10:00.254Z,11.60
2018-03-15T22:12:28.658Z,12.52
2018-03-15T22:14:56.910Z,11.78
2018-03-15T22:17:26.758Z,13.14
2018-03-15T22:19:55.084Z,13.30
2018-03-15T22:22:23.378Z,11.80
2018-03-15T22:24:51.722Z,12.78
2018-03-15T22:27:20.048Z,13.18
2018-03-15T22:29:48.345Z,13.46
2018-03-15T22:32:26.766Z,12.52
2018-03-15T22:34:55.080Z,12.92
2018-03-15T22:37:23.404Z,13.20
2018-03-15T22:39:51.693Z,13.10
2018-03-15T22:42:21.103Z,12.30
2018-03-15T22:44:49.401Z,11.98
2018-03-15T22:47:17.739Z,13.60
2018-03-15T22:49:46.036Z,12.52
2018-03-15T22:52:14.374Z,12.40
2018-03-15T22:54:42.695Z,13.42
2018-03-15T22:57:11.032Z,14.28
2018-03-15T22:59:39.324Z,14.86
2018-03-15T23:02:07.619Z,15.04
2018-03-15T23:04:35.955Z,15.12
2018-03-15T23:07:03.517Z,14.32
2018-03-15T23:09:31.807Z,16.44
2018-03-15T23:12:00.142Z,16.30
2018-03-15T23:14:28.444Z,15.58
2018-03-15T23:16:56.784Z,16.54
2018-03-15T23:19:25.122Z,17.54
2018-03-15T23:21:53.457Z,16.86
2018-03-15T23:24:21.767Z,16.92
2018-03-15T23:26:50.101Z,16.10
2018-03-15T23:29:23.057Z,18.92
2018-03-15T23:31:51.354Z,16.36
2018-03-15T23:34:19.685Z,17.24
2018-03-15T23:36:47.992Z,19.06
2018-03-15T23:39:16.336Z,18.04
2018-03-15T23:41:44.664Z,19.68
2018-03-15T23:44:12.987Z,17.56
2018-03-15T23:46:41.317Z,19.04
2018-03-15T23:49:09.620Z,18.66
2018-03-15T23:51:37.954Z,17.04
2018-03-15T23:54:06.254Z,18.32
2018-03-15T23:56:34.590Z,19.36
2018-03-15T23:59:02.901Z,20.88
